Time;durP1;ratioP1;P1;durP2;ratioP2;P2;SDS_P1;SDS_P2;PMS_P1;PMS_P2;Temp;Humidity;BMP_temperature;BMP_pressure;BME280_temperature;BME280_humidity;BME280_pressure;Samples;Min_cycle;Max_cycle;Signal;HPM_P1;HPM_P2
2022/07/25 00:02:15;;;;;;;;;8.00;8.00;;;;;28.60;40.44;100720.16;5098607;27;45925;-80
2022/07/25 00:04:41;;;;;;;;;7.00;7.00;;;;;28.53;39.64;100703.59;5098326;27;45473;-80
2022/07/25 00:07:07;;;;;;;;;9.00;8.00;;;;;28.54;40.25;100709.91;5098031;27;45505;-80
2022/07/25 00:09:32;;;;;;;;;8.00;7.33;;;;;28.47;40.46;100689.78;5098490;27;45576;-80
2022/07/25 00:11:58;;;;;;;;;9.00;8.00;;;;;28.53;40.94;100700.84;5097306;27;46241;-70
2022/07/25 00:14:23;;;;;;;;;7.67;7.33;;;;;28.52;40.29;100701.91;5078006;27;45700;-69
2022/07/25 00:16:49;;;;;;;;;10.67;8.67;;;;;28.48;40.78;100695.06;5096850;27;45459;-70
2022/07/25 00:19:14;;;;;;;;;8.33;8.33;;;;;28.50;40.77;100703.13;5095775;27;45967;-70
2022/07/25 00:21:39;;;;;;;;;10.00;9.00;;;;;28.45;40.69;100692.69;5097529;27;45718;-70
2022/07/25 00:24:05;;;;;;;;;8.33;8.33;;;;;28.45;40.66;100680.84;5097664;27;45429;-70
2022/07/25 00:26:30;;;;;;;;;9.00;9.00;;;;;28.42;40.41;100677.47;5097805;27;45414;-70
2022/07/25 00:28:56;;;;;;;;;7.67;7.67;;;;;28.42;40.86;100682.06;5097615;27;45624;-70
2022/07/25 00:31:21;;;;;;;;;7.33;7.00;;;;;28.42;40.97;100688.44;5078169;27;48342;-70
2022/07/25 00:33:46;;;;;;;;;8.67;8.33;;;;;28.42;41.02;100693.03;5095263;27;45358;-70
2022/07/25 00:36:12;;;;;;;;;9.33;9.00;;;;;28.34;41.06;100677.50;5095680;27;45515;-69
2022/07/25 00:38:37;;;;;;;;;9.33;9.33;;;;;28.39;41.22;100688.78;5096567;27;45525;-70
2022/07/25 00:41:03;;;;;;;;;7.00;7.00;;;;;28.39;41.08;100687.94;5095704;27;46947;-70
2022/07/25 00:43:28;;;;;;;;;13.00;10.33;;;;;28.21;41.04;100652.59;5077983;27;45486;-69
2022/07/25 00:45:53;;;;;;;;;9.67;8.33;;;;;28.37;41.26;100684.50;5095530;27;45853;-69
2022/07/25 00:48:19;;;;;;;;;9.67;8.00;;;;;28.34;41.46;100690.38;5096466;27;45770;-69
2022/07/25 00:50:44;;;;;;;;;12.00;11.33;;;;;28.35;41.00;100711.25;5093874;27;46391;-70
2022/07/25 00:53:10;;;;;;;;;10.33;10.33;;;;;28.34;40.66;100709.56;5096839;27;45422;-70
2022/07/25 00:55:35;;;;;;;;;9.00;7.00;;;;;28.33;40.78;100699.63;5097041;27;45436;-70
2022/07/25 00:58:01;;;;;;;;;8.67;7.33;;;;;28.33;40.74;100707.84;5097274;27;45785;-70
2022/07/25 01:00:26;;;;;;;;;9.00;7.00;;;;;28.28;40.74;100704.81;5108618;27;47009;-70
2022/07/25 01:02:52;;;;;;;;;7.33;7.33;;;;;28.31;41.24;100718.16;5097012;27;45652;-70
2022/07/25 01:05:17;;;;;;;;;7.00;7.00;;;;;28.30;40.73;100713.72;5096922;27;45500;-70
2022/07/25 01:07:43;;;;;;;;;6.33;6.33;;;;;28.29;40.71;100703.78;5097221;27;45495;-70
2022/07/25 01:10:10;;;;;;;;;9.33;9.00;;;;;28.28;41.08;100710.28;5081307;27;47331;-70
2022/07/25 01:12:50;;;;;;;;;7.33;6.00;;;;;28.15;40.75;100698.06;5109427;27;45553;-70
2022/07/25 01:15:21;;;;;;;;;7.67;6.67;;;;;28.25;40.78;100703.28;5109585;27;45465;-70
2022/07/25 01:17:47;;;;;;;;;9.00;8.00;;;;;28.22;40.77;100695.44;5095280;27;45421;-69
2022/07/25 01:20:14;;;;;;;;;7.00;7.00;;;;;28.23;40.54;100702.63;5079819;27;47223;-70
2022/07/25 01:22:40;;;;;;;;;9.67;9.67;;;;;28.12;41.05;100694.81;5093256;27;45657;-70
2022/07/25 01:25:05;;;;;;;;;6.33;6.33;;;;;28.17;41.23;100704.22;5095571;27;45419;-70
2022/07/25 01:27:31;;;;;;;;;8.33;8.33;;;;;28.08;41.34;100690.78;5100096;27;45736;-70
2022/07/25 01:29:56;;;;;;;;;6.33;6.33;;;;;28.13;41.05;100705.63;5081286;27;45687;-70
2022/07/25 01:32:22;;;;;;;;;9.33;7.00;;;;;28.09;40.78;100704.25;5094278;27;45440;-70
2022/07/25 01:34:47;;;;;;;;;7.00;7.00;;;;;28.10;40.97;100708.72;5082034;27;45523;-70
2022/07/25 01:37:12;;;;;;;;;10.00;6.00;;;;;28.07;40.50;100708.22;5094293;27;45413;-70
2022/07/25 01:39:38;;;;;;;;;7.67;6.00;;;;;28.06;40.56;100703.78;5076473;27;45516;-70
2022/07/25 01:42:03;;;;;;;;;8.33;7.00;;;;;27.95;40.98;100688.63;5094216;27;45482;-70
2022/07/25 01:44:29;;;;;;;;;9.33;7.00;;;;;28.01;41.16;100701.59;5094067;27;45562;-70
2022/07/25 01:46:54;;;;;;;;;6.67;6.33;;;;;27.98;41.16;100711.03;5095763;27;45398;-70
2022/07/25 01:49:19;;;;;;;;;6.67;6.67;;;;;27.94;40.93;100706.09;5094253;27;45389;-70
2022/07/25 01:51:45;;;;;;;;;5.33;5.33;;;;;27.89;41.02;100706.66;5095163;27;45383;-70
2022/07/25 01:54:10;;;;;;;;;10.67;7.00;;;;;27.84;41.14;100711.81;5095976;27;45795;-69
2022/07/25 01:56:36;;;;;;;;;5.67;5.67;;;;;27.79;41.05;100708.72;5078367;27;45521;-70
2022/07/25 01:59:01;;;;;;;;;7.00;7.00;;;;;27.75;41.21;100719.19;5096013;27;45476;-70
2022/07/25 02:01:27;;;;;;;;;6.00;6.00;;;;;27.68;40.64;100710.00;5078002;27;45350;-70
2022/07/25 02:03:52;;;;;;;;;6.00;6.00;;;;;27.66;41.03;100716.69;5095972;27;45502;-70
2022/07/25 02:06:18;;;;;;;;;5.33;5.33;;;;;27.46;40.70;100687.00;5096528;27;45566;-70
2022/07/25 02:08:43;;;;;;;;;5.33;5.33;;;;;27.52;41.03;100723.78;5094864;27;46323;-70
2022/07/25 02:11:09;;;;;;;;;3.00;3.00;;;;;27.38;40.78;100702.63;5094882;27;45596;-70
2022/07/25 02:13:34;;;;;;;;;3.67;3.67;;;;;27.40;40.48;100717.84;5095526;27;45800;-69
2022/07/25 02:15:59;;;;;;;;;6.00;4.00;;;;;27.30;40.50;100712.56;5094468;27;45490;-70
2022/07/25 02:18:25;;;;;;;;;6.00;5.00;;;;;27.27;40.96;100717.53;5101358;27;46218;-70
2022/07/25 02:20:52;;;;;;;;;3.33;3.33;;;;;27.20;40.31;100722.84;5079179;27;45492;-70
2022/07/25 02:23:17;;;;;;;;;4.00;4.00;;;;;27.13;40.70;100721.81;5096183;27;45420;-70
2022/07/25 02:25:42;;;;;;;;;3.67;3.33;;;;;27.06;40.40;100715.34;5095355;27;45512;-70
2022/07/25 02:28:08;;;;;;;;;4.00;4.00;;;;;27.03;40.37;100715.72;5093059;27;48962;-70
2022/07/25 02:30:33;;;;;;;;;6.00;5.00;;;;;27.00;40.72;100719.66;5095142;27;45505;-70
2022/07/25 02:32:59;;;;;;;;;2.33;2.00;;;;;26.94;40.65;100714.88;5094806;27;45980;-70
2022/07/25 02:35:24;;;;;;;;;2.00;2.00;;;;;26.90;40.41;100706.19;5095319;27;45419;-70
2022/07/25 02:37:50;;;;;;;;;2.67;2.67;;;;;26.85;40.13;100699.50;5092367;27;45457;-70
2022/07/25 02:40:15;;;;;;;;;4.33;3.00;;;;;26.80;40.08;100699.19;5094658;27;45559;-70
2022/07/25 02:42:40;;;;;;;;;2.00;2.00;;;;;26.74;40.14;100698.84;5094967;27;45449;-70
2022/07/25 02:45:06;;;;;;;;;3.00;3.00;;;;;26.58;40.20;100689.81;5098591;27;45621;-70
2022/07/25 02:47:32;;;;;;;;;3.33;3.00;;;;;26.73;40.05;100710.81;5096871;27;46366;-70
2022/07/25 02:49:57;;;;;;;;;2.67;2.67;;;;;26.72;40.17;100717.31;5098283;27;45543;-70
2022/07/25 02:52:23;;;;;;;;;2.33;2.33;;;;;26.69;40.08;100712.19;5097987;27;45388;-70
2022/07/25 02:54:49;;;;;;;;;3.00;3.00;;;;;26.65;39.77;100719.03;5098394;27;45609;-70
2022/07/25 02:57:15;;;;;;;;;3.00;2.00;;;;;26.62;40.42;100722.13;5096644;27;46351;-70
2022/07/25 02:59:40;;;;;;;;;2.00;0.33;;;;;26.58;40.16;100718.00;5097913;27;45481;-70
2022/07/25 03:02:06;;;;;;;;;3.00;3.00;;;;;26.50;39.84;100707.91;5095915;27;45872;-70
2022/07/25 03:04:32;;;;;;;;;2.00;2.00;;;;;26.55;40.07;100720.22;5089449;27;45527;-70
2022/07/25 03:06:57;;;;;;;;;1.00;1.00;;;;;26.51;40.40;100719.69;5096840;27;47133;-70
2022/07/25 03:09:23;;;;;;;;;2.67;2.00;;;;;26.47;40.24;100718.31;5098220;27;45408;-70
2022/07/25 03:11:50;;;;;;;;;2.33;2.33;;;;;26.42;40.06;100721.56;5060428;27;45435;-70
2022/07/25 03:14:16;;;;;;;;;2.00;1.00;;;;;26.35;39.92;100719.69;5099188;27;45391;-70
2022/07/25 03:16:41;;;;;;;;;2.00;2.00;;;;;26.31;40.09;100724.63;5097959;27;45638;-70
2022/07/25 03:19:09;;;;;;;;;3.00;3.00;;;;;26.30;39.63;100726.53;5102178;27;45328;-70
2022/07/25 03:21:36;;;;;;;;;1.00;1.00;;;;;26.30;40.39;100723.78;5079453;27;45580;-70
2022/07/25 03:24:01;;;;;;;;;3.67;1.00;;;;;26.30;39.67;100728.41;5098549;27;45489;-70
2022/07/25 03:26:26;;;;;;;;;3.67;2.00;;;;;26.29;39.60;100729.41;5098095;27;46616;-69
2022/07/25 03:28:52;;;;;;;;;1.00;1.00;;;;;26.29;39.68;100732.16;5096891;27;45427;-70
2022/07/25 03:31:17;;;;;;;;;1.33;1.00;;;;;26.26;39.94;100735.22;5098345;27;45538;-70
2022/07/25 03:33:42;;;;;;;;;1.00;1.00;;;;;26.17;40.03;100725.31;5098928;27;45508;-70
2022/07/25 03:36:09;;;;;;;;;0.00;0.00;;;;;26.22;40.31;100742.94;5097422;27;47107;-70
2022/07/25 03:38:34;;;;;;;;;1.00;1.00;;;;;26.17;39.77;100745.28;5076402;28;45815;-70
2022/07/25 03:41:00;;;;;;;;;1.00;1.00;;;;;26.16;40.20;100754.53;5091257;27;45504;-70
2022/07/25 03:43:25;;;;;;;;;2.00;2.00;;;;;26.16;40.35;100748.22;5098364;27;45432;-69
2022/07/25 03:45:50;;;;;;;;;1.33;1.33;;;;;25.98;40.23;100724.59;5098432;27;46171;-70
2022/07/25 03:48:16;;;;;;;;;2.00;2.00;;;;;26.13;40.01;100762.19;5098159;27;45460;-70
2022/07/25 03:50:41;;;;;;;;;1.00;1.00;;;;;26.07;39.77;100767.31;5098349;27;45458;-69
2022/07/25 03:53:06;;;;;;;;;3.00;3.00;;;;;26.06;39.78;100771.06;5097664;27;45521;-70
2022/07/25 03:55:32;;;;;;;;;1.00;1.00;;;;;25.99;39.71;100761.84;5097462;27;46856;-70
2022/07/25 03:57:57;;;;;;;;;0.00;0.00;;;;;26.02;39.82;100771.56;5098414;27;45576;-70
2022/07/25 04:00:23;;;;;;;;;1.00;1.00;;;;;25.99;39.50;100782.81;5098061;27;45731;-70
2022/07/25 04:02:48;;;;;;;;;1.33;1.00;;;;;25.87;39.57;100772.22;5098574;27;45792;-70
2022/07/25 04:05:13;;;;;;;;;1.00;1.00;;;;;25.89;40.22;100775.66;5097978;27;45467;-70
2022/07/25 04:07:39;;;;;;;;;1.00;1.00;;;;;25.79;39.72;100771.31;5098161;27;45472;-70
2022/07/25 04:10:05;;;;;;;;;1.00;1.00;;;;;25.80;39.95;100781.19;5079590;27;45974;-70
2022/07/25 04:12:30;;;;;;;;;0.00;0.00;;;;;25.73;40.11;100766.50;5087433;27;45564;-79
2022/07/25 04:14:56;;;;;;;;;1.00;1.00;;;;;25.72;39.89;100768.38;5097955;27;45468;-79
2022/07/25 04:17:21;;;;;;;;;1.67;1.67;;;;;25.75;40.12;100776.22;5094798;27;45596;-79
2022/07/25 04:19:46;;;;;;;;;1.67;1.67;;;;;25.74;40.05;100790.06;5105000;27;45518;-79
2022/07/25 04:22:12;;;;;;;;;1.33;1.00;;;;;25.69;40.06;100788.66;5097262;27;45556;-79
2022/07/25 04:24:37;;;;;;;;;1.00;1.00;;;;;25.66;40.13;100785.41;5097776;27;46013;-79
2022/07/25 04:27:03;;;;;;;;;0.33;0.33;;;;;25.57;39.79;100781.81;5097672;27;45660;-79
2022/07/25 04:29:28;;;;;;;;;2.33;1.00;;;;;25.59;39.89;100789.81;5094516;27;45545;-79
2022/07/25 04:31:53;;;;;;;;;1.67;1.67;;;;;25.54;40.47;100782.09;5097558;27;45494;-79
2022/07/25 04:34:19;;;;;;;;;2.00;2.00;;;;;25.54;40.19;100792.19;5097253;27;47007;-79
2022/07/25 04:36:44;;;;;;;;;1.00;1.00;;;;;25.47;40.94;100791.97;5097399;27;45362;-79
2022/07/25 04:39:10;;;;;;;;;1.00;1.00;;;;;25.46;41.11;100793.00;5097942;27;45393;-79
2022/07/25 04:41:35;;;;;;;;;1.00;1.00;;;;;25.51;41.54;100800.69;5097526;27;45546;-79
2022/07/25 04:44:00;;;;;;;;;1.67;0.33;;;;;25.44;41.42;100803.22;5079136;27;47414;-78
2022/07/25 04:46:26;;;;;;;;;1.00;1.00;;;;;25.46;41.34;100804.78;5096720;27;45716;-78
2022/07/25 04:48:51;;;;;;;;;3.00;1.00;;;;;25.39;41.85;100791.94;5096990;27;45860;-79
2022/07/25 04:51:17;;;;;;;;;0.67;0.67;;;;;25.46;41.78;100803.91;5097462;27;45363;-77
2022/07/25 04:53:43;;;;;;;;;4.00;1.00;;;;;25.46;42.13;100810.22;5096662;27;47044;-79
2022/07/25 04:56:08;;;;;;;;;1.00;1.00;;;;;25.47;42.13;100806.50;5097187;27;45705;-78
2022/07/25 04:58:34;;;;;;;;;1.00;1.00;;;;;25.47;42.53;100798.31;5097297;27;45618;-79
2022/07/25 05:00:59;;;;;;;;;0.67;0.67;;;;;25.49;42.24;100806.31;5096998;27;45549;-79
2022/07/25 05:03:25;;;;;;;;;3.00;1.00;;;;;25.40;42.69;100788.19;5096564;27;47222;-78
2022/07/25 05:05:50;;;;;;;;;3.00;3.00;;;;;25.50;42.73;100802.59;5096002;27;45585;-78
2022/07/25 05:08:16;;;;;;;;;1.00;1.00;;;;;25.51;43.13;100797.97;5079044;27;45484;-79
2022/07/25 05:10:42;;;;;;;;;1.00;1.00;;;;;25.49;43.25;100798.97;5097368;27;46182;-78
2022/07/25 05:13:08;;;;;;;;;1.33;1.33;;;;;25.49;42.89;100800.84;5078593;27;47209;-78
2022/07/25 05:15:33;;;;;;;;;1.00;1.00;;;;;25.54;43.55;100808.56;5096813;27;45449;-78
2022/07/25 05:17:59;;;;;;;;;2.67;1.00;;;;;25.55;43.47;100808.41;5099643;27;45541;-78
2022/07/25 05:20:24;;;;;;;;;1.00;1.00;;;;;25.56;43.42;100814.72;5103848;27;45510;-79
2022/07/25 05:22:50;;;;;;;;;1.00;1.00;;;;;25.52;43.59;100810.59;5095939;27;45906;-78
2022/07/25 05:25:16;;;;;;;;;1.00;1.00;;;;;25.48;43.87;100805.47;5097032;27;45446;-79
2022/07/25 05:27:42;;;;;;;;;1.00;1.00;;;;;25.40;43.53;100791.78;5097015;27;45638;-78
2022/07/25 05:30:09;;;;;;;;;3.33;1.67;;;;;25.48;44.32;100821.84;5079055;27;45533;-78
2022/07/25 05:32:35;;;;;;;;;0.33;0.33;;;;;25.46;44.09;100821.16;5096124;27;47216;-78
2022/07/25 05:35:01;;;;;;;;;1.33;1.33;;;;;25.43;44.50;100818.75;5094970;27;45518;-78
2022/07/25 05:37:26;;;;;;;;;1.00;1.00;;;;;25.43;44.79;100829.66;5076432;27;45559;-76
2022/07/25 05:39:51;;;;;;;;;1.33;1.33;;;;;25.35;44.53;100818.69;5091967;27;45684;-75
2022/07/25 05:42:17;;;;;;;;;2.33;2.00;;;;;25.44;44.59;100838.69;5078835;27;47007;-78
2022/07/25 05:44:42;;;;;;;;;1.00;1.00;;;;;25.44;44.29;100839.56;5090688;27;45676;-74
2022/07/25 05:47:11;;;;;;;;;1.00;1.00;;;;;25.42;44.97;100838.00;5089403;27;46829;-75
2022/07/25 05:49:37;;;;;;;;;2.00;2.00;;;;;25.39;44.46;100841.06;5077778;27;45514;-74
2022/07/25 05:52:03;;;;;;;;;1.67;1.67;;;;;25.40;44.67;100837.31;5095163;27;46949;-74
2022/07/25 05:54:29;;;;;;;;;1.00;1.00;;;;;25.39;44.71;100841.91;5086533;27;45473;-74
2022/07/25 05:56:54;;;;;;;;;32.33;30.33;;;;;25.44;44.77;100852.34;5077514;27;46336;-73
2022/07/25 05:59:19;;;;;;;;;2.00;1.67;;;;;25.45;45.60;100851.31;5075258;27;45612;-74
2022/07/25 06:01:44;;;;;;;;;1.00;1.00;;;;;25.43;45.19;100847.91;5094664;27;47281;-74
2022/07/25 06:04:10;;;;;;;;;1.00;1.00;;;;;25.44;45.10;100855.06;5095388;27;45467;-74
2022/07/25 06:06:35;;;;;;;;;1.00;1.00;;;;;25.43;44.85;100854.22;5095509;27;45420;-73
2022/07/25 06:09:01;;;;;;;;;1.00;1.00;;;;;25.42;44.85;100857.97;5095324;27;45970;-73
2022/07/25 06:11:27;;;;;;;;;1.67;1.67;;;;;25.44;44.89;100860.53;5095283;27;46036;-73
2022/07/25 06:13:53;;;;;;;;;5.00;2.00;;;;;25.43;45.71;100861.56;5095298;27;45539;-73
2022/07/25 06:16:18;;;;;;;;;1.00;1.00;;;;;25.45;45.47;100859.50;5095356;27;45832;-73
2022/07/25 06:18:43;;;;;;;;;2.00;1.00;;;;;25.48;45.77;100860.06;5078626;27;45685;-74
2022/07/25 06:21:09;;;;;;;;;2.67;1.67;;;;;25.47;44.99;100862.94;5077054;27;45554;-74
2022/07/25 06:23:34;;;;;;;;;0.00;0.00;;;;;25.49;45.21;100866.34;5095340;27;45495;-74
2022/07/25 06:25:59;;;;;;;;;2.00;2.00;;;;;25.53;45.27;100872.38;5095330;27;45966;-74
2022/07/25 06:28:25;;;;;;;;;3.33;1.67;;;;;25.52;45.37;100863.31;5095471;27;45679;-74
2022/07/25 06:30:50;;;;;;;;;2.33;1.00;;;;;25.52;45.35;100862.44;5055027;28;45863;-75
2022/07/25 06:33:16;;;;;;;;;1.00;0.67;;;;;25.61;44.96;100866.94;5094712;27;45577;-75
2022/07/25 06:35:41;;;;;;;;;2.00;2.00;;;;;25.57;45.35;100860.13;5095908;27;45471;-75
2022/07/25 06:38:07;;;;;;;;;2.33;1.33;;;;;25.69;45.42;100870.56;5095859;27;45565;-76
2022/07/25 06:40:32;;;;;;;;;3.00;2.00;;;;;25.73;45.39;100873.84;5095818;27;54398;-76
2022/07/25 06:42:57;;;;;;;;;1.00;1.00;;;;;25.67;44.92;100875.34;5095582;27;45524;-75
2022/07/25 06:45:22;;;;;;;;;1.00;1.00;;;;;25.67;45.63;100866.31;5095695;27;45588;-75
2022/07/25 06:47:48;;;;;;;;;2.67;2.00;;;;;25.70;45.13;100872.28;5095884;27;45544;-74
2022/07/25 06:50:17;;;;;;;;;0.00;0.00;;;;;25.77;45.75;100888.88;5093627;27;46456;-76
2022/07/25 06:52:42;;;;;;;;;4.00;3.00;;;;;25.69;45.58;100873.31;5081323;27;45523;-75
2022/07/25 06:55:09;;;;;;;;;2.00;2.00;;;;;25.84;45.84;100891.81;5092546;27;45482;-77
2022/07/25 06:57:35;;;;;;;;;2.00;2.00;;;;;25.86;45.38;100887.03;5094665;27;45444;-76
2022/07/25 07:00:05;;;;;;;;;1.00;1.00;;;;;25.87;46.19;100891.50;5094535;27;45391;-76
2022/07/25 07:02:30;;;;;;;;;3.67;2.33;;;;;25.89;45.77;100898.53;5094465;27;45495;-77
2022/07/25 07:04:56;;;;;;;;;1.00;1.00;;;;;25.88;45.75;100896.81;5095629;27;45475;-77
2022/07/25 07:07:21;;;;;;;;;1.00;1.00;;;;;25.87;45.58;100895.13;5099229;27;45543;-78
2022/07/25 07:09:46;;;;;;;;;1.00;1.00;;;;;25.98;45.79;100906.75;5101580;27;47038;-77
2022/07/25 07:12:12;;;;;;;;;1.33;1.00;;;;;25.99;45.86;100908.47;5077101;27;45489;-76
2022/07/25 07:14:37;;;;;;;;;1.67;1.67;;;;;26.06;45.92;100902.19;5095456;27;45683;-76
2022/07/25 07:17:03;;;;;;;;;4.00;2.33;;;;;26.07;45.35;100898.44;5092284;27;45446;-76
2022/07/25 07:19:29;;;;;;;;;1.00;1.00;;;;;26.07;45.08;100900.31;5097023;27;45830;-75
2022/07/25 07:21:54;;;;;;;;;2.00;1.00;;;;;26.11;45.67;100904.44;5091072;27;45513;-76
2022/07/25 07:24:20;;;;;;;;;2.00;2.00;;;;;26.10;45.87;100916.38;5090626;27;45645;-75
2022/07/25 07:26:45;;;;;;;;;2.00;1.00;;;;;26.05;45.85;100903.19;5080207;27;45418;-77
2022/07/25 07:29:10;;;;;;;;;1.00;1.00;;;;;26.08;45.23;100910.22;5084077;27;45860;-75
2022/07/25 07:31:36;;;;;;;;;2.33;1.33;;;;;26.11;45.72;100916.22;5089471;27;45540;-74
2022/07/25 07:34:01;;;;;;;;;1.33;1.33;;;;;26.15;45.86;100922.19;5093581;27;45492;-73
2022/07/25 07:36:27;;;;;;;;;1.67;1.67;;;;;26.22;45.40;100916.94;5092551;27;45795;-72
2022/07/25 07:38:52;;;;;;;;;2.00;2.00;;;;;26.20;45.54;100903.44;5090522;27;46900;-73
2022/07/25 07:41:18;;;;;;;;;2.00;2.00;;;;;26.32;45.55;100914.94;5094041;27;45568;-73
2022/07/25 07:43:44;;;;;;;;;1.00;1.00;;;;;26.36;45.56;100921.75;5089763;27;45482;-73
2022/07/25 07:46:09;;;;;;;;;2.00;2.00;;;;;26.41;45.93;100922.13;5095850;27;45574;-72
2022/07/25 07:48:35;;;;;;;;;3.00;1.00;;;;;26.45;45.34;100926.22;5072946;28;46460;-75
2022/07/25 07:51:01;;;;;;;;;1.00;1.00;;;;;26.53;45.56;100919.94;5091297;27;45418;-76
2022/07/25 07:56:24;;;;;;;;;2.00;2.00;;;;;26.67;45.52;100924.78;5039254;28;45605;-74
2022/07/25 07:58:49;;;;;;;;;1.00;1.00;;;;;26.70;45.35;100931.81;5042277;28;45554;-74
2022/07/25 08:01:15;;;;;;;;;2.33;0.67;;;;;26.74;45.43;100934.03;5044779;28;45604;-74
2022/07/25 08:03:40;;;;;;;;;1.00;1.00;;;;;26.79;45.36;100935.41;5042120;28;45388;-74
2022/07/25 08:06:06;;;;;;;;;1.00;1.00;;;;;26.79;44.83;100927.22;5039370;28;45480;-74
2022/07/25 08:08:31;;;;;;;;;1.00;1.00;;;;;26.83;45.22;100931.31;5039829;28;45913;-74
2022/07/25 08:10:57;;;;;;;;;1.00;1.00;;;;;26.95;44.92;100938.19;5031715;28;45580;-70
2022/07/25 08:13:27;;;;;;;;;1.00;0.00;;;;;27.06;44.96;100934.22;5033733;28;45604;-69
2022/07/25 08:15:56;;;;;;;;;0.00;0.00;;;;;27.20;44.71;100938.22;5048698;28;45546;-71
2022/07/25 08:18:22;;;;;;;;;1.00;1.00;;;;;27.31;44.25;100935.13;5037210;28;46452;-72
2022/07/25 08:20:49;;;;;;;;;1.00;1.00;;;;;27.37;44.08;100934.47;5015951;28;45564;-72
2022/07/25 08:23:15;;;;;;;;;2.00;1.00;;;;;27.39;44.25;100937.00;5032517;28;45887;-71
2022/07/25 08:25:42;;;;;;;;;1.00;1.00;;;;;27.44;44.37;100940.06;5044665;28;45502;-71
2022/07/25 08:28:07;;;;;;;;;1.00;1.00;;;;;27.51;44.42;100933.75;5025249;28;47093;-71
2022/07/25 08:30:36;;;;;;;;;2.33;1.00;;;;;27.75;43.72;100942.94;5034785;28;45965;-71
2022/07/25 08:33:04;;;;;;;;;1.67;1.67;;;;;27.99;43.50;100947.53;5091230;27;45590;-71
2022/07/25 08:35:31;;;;;;;;;1.00;1.00;;;;;28.15;42.66;100950.22;5097261;27;45558;-71
2022/07/25 08:37:58;;;;;;;;;1.33;1.33;;;;;28.18;42.88;100941.63;5096441;27;46085;-76
2022/07/25 08:40:26;;;;;;;;;1.00;1.00;;;;;28.25;42.61;100946.41;5086539;27;45536;-76
2022/07/25 08:42:53;;;;;;;;;1.00;1.00;;;;;28.26;42.63;100940.75;5089321;27;45752;-76
2022/07/25 08:45:20;;;;;;;;;1.67;1.67;;;;;28.31;42.70;100945.72;5095140;27;45534;-76
2022/07/25 08:47:48;;;;;;;;;0.25;0.25;;;;;28.39;42.26;100941.03;5088996;27;45569;-74
2022/07/25 08:50:16;;;;;;;;;2.00;2.00;;;;;28.48;42.41;100947.38;5090832;27;45621;-75
2022/07/25 08:52:44;;;;;;;;;1.00;1.00;;;;;29.37;41.17;100939.56;5091666;27;45624;-75
2022/07/25 08:55:14;;;;;;;;;0.33;0.33;;;;;29.37;40.84;100935.97;5089351;27;45352;-75
2022/07/25 08:57:42;;;;;;;;;1.00;1.00;;;;;29.17;40.71;100950.22;5091714;27;45543;-75
2022/07/25 09:00:11;;;;;;;;;1.00;1.00;;;;;28.97;41.21;100957.19;5074522;27;45643;-75
2022/07/25 09:02:37;;;;;;;;;0.50;0.50;;;;;28.70;41.30;100951.16;5089300;27;45923;-75
2022/07/25 09:05:03;;;;;;;;;0.67;0.67;;;;;28.54;41.33;100957.63;5088190;27;45451;-75
2022/07/25 09:07:36;;;;;;;;;0.00;0.00;;;;;28.45;41.79;100953.19;5073244;27;46270;-75
2022/07/25 09:10:18;;;;;;;;;1.00;1.00;;;;;28.33;41.91;100957.31;5088874;27;45444;-74
2022/07/25 09:12:53;;;;;;;;;1.00;1.00;;;;;28.19;42.49;100953.47;5088535;27;45413;-74
2022/07/25 09:15:59;;;;;;;;;0.67;0.67;;;;;28.32;41.52;100967.44;5076943;27;45600;-73
2022/07/25 09:18:26;;;;;;;;;1.00;1.00;;;;;28.49;42.28;100970.16;5089125;27;46398;-73
2022/07/25 09:20:53;;;;;;;;;1.00;1.00;;;;;28.53;41.59;100964.13;5093309;27;45529;-73
2022/07/25 09:23:36;;;;;;;;;2.67;1.33;;;;;28.52;41.91;100972.56;5093051;27;45444;-74
2022/07/25 09:26:07;;;;;;;;;0.33;0.33;;;;;28.53;41.42;100979.72;5091086;27;45542;-73
2022/07/25 09:28:53;;;;;;;;;1.67;1.67;;;;;28.47;41.61;100980.44;5095172;27;46194;-73
2022/07/25 09:31:19;;;;;;;;;3.00;1.67;;;;;28.94;41.47;100985.84;5094964;27;45549;-74
2022/07/25 09:33:47;;;;;;;;;0.67;0.67;;;;;29.40;40.24;100988.59;5095242;27;45438;-74
2022/07/25 09:36:13;;;;;;;;;2.00;0.67;;;;;29.55;39.22;100991.41;5094959;27;45546;-73
2022/07/25 09:38:38;;;;;;;;;0.67;0.67;;;;;29.29;39.89;100989.06;5094868;27;48930;-74
2022/07/25 09:41:04;;;;;;;;;1.00;1.00;;;;;29.13;40.11;100992.78;5095080;27;45823;-74
2022/07/25 09:43:41;;;;;;;;;1.00;1.00;;;;;29.29;39.81;100999.16;5095389;27;45429;-74
2022/07/25 09:46:08;;;;;;;;;1.00;1.00;;;;;31.65;36.04;100989.03;5095875;27;45405;-73
2022/07/25 09:48:35;;;;;;;;;1.00;1.00;;;;;30.97;36.42;100980.31;5094247;27;46369;-74
2022/07/25 09:51:01;;;;;;;;;0.67;0.67;;;;;30.02;37.14;100970.19;5093867;27;45545;-83
2022/07/25 09:53:28;;;;;;;;;1.00;1.00;;;;;29.40;38.34;100993.25;5092956;27;45544;-85
2022/07/25 09:55:55;;;;;;;;;1.33;1.00;;;;;29.03;39.30;101001.22;5094316;27;45648;-81
2022/07/25 09:58:22;;;;;;;;;1.00;1.00;;;;;28.80;39.73;101003.09;5084978;27;47359;-85
2022/07/25 10:00:47;;;;;;;;;1.00;1.00;;;;;28.67;40.73;100998.16;5093503;27;45679;-85
2022/07/25 10:03:32;;;;;;;;;1.00;1.00;;;;;28.60;41.14;101002.66;5075937;27;45564;-85
2022/07/25 10:06:19;;;;;;;;;0.67;0.00;;;;;28.57;40.80;101014.00;5090451;27;45968;-83
2022/07/25 10:08:45;;;;;;;;;1.00;1.00;;;;;28.75;40.93;101000.00;5093803;27;45931;-83
2022/07/25 10:11:25;;;;;;;;;1.00;1.00;;;;;28.92;40.80;101006.28;5094567;27;45575;-83
2022/07/25 10:13:52;;;;;;;;;1.00;1.00;;;;;28.88;40.71;101013.16;5093297;27;45453;-77
2022/07/25 10:16:22;;;;;;;;;1.33;1.33;;;;;28.93;40.10;101008.81;5093609;27;45487;-80
2022/07/25 10:18:52;;;;;;;;;0.00;0.00;;;;;28.92;40.50;101009.03;5096002;27;46238;-85
2022/07/25 10:21:19;;;;;;;;;2.00;2.00;;;;;29.41;39.89;101012.28;5100790;27;45366;-86
2022/07/25 10:24:37;;;;;;;;;2.00;2.00;;;;;29.33;40.15;101025.22;5096543;27;45499;-85
2022/07/25 10:27:40;;;;;;;;;3.67;2.00;;;;;29.34;39.82;101024.22;5096856;27;45638;-88
2022/07/25 10:30:10;;;;;;;;;2.00;2.00;;;;;29.38;39.85;101014.53;5091264;27;46235;-88
2022/07/25 10:32:35;;;;;;;;;2.67;1.00;;;;;29.67;39.52;101019.31;5093977;27;45557;-88
2022/07/25 10:35:11;;;;;;;;;2.00;1.33;;;;;29.60;39.39;101032.06;5094870;27;46088;-88
2022/07/25 10:37:36;;;;;;;;;1.00;1.00;;;;;29.50;39.81;101015.84;5075847;27;46035;-88
2022/07/25 10:40:02;;;;;;;;;3.00;2.00;;;;;29.47;39.75;101024.44;5075425;27;46696;-88
2022/07/25 10:42:32;;;;;;;;;1.00;1.00;;;;;29.35;39.86;101039.63;5094973;27;45611;-88
2022/07/25 10:45:01;;;;;;;;;0.50;0.50;;;;;29.34;39.82;101036.03;5075335;27;45498;-88
2022/07/25 10:47:27;;;;;;;;;1.33;0.67;;;;;29.19;39.96;101021.38;5093944;27;45591;-74
2022/07/25 10:49:57;;;;;;;;;1.00;1.00;;;;;29.17;40.27;101037.19;5093804;27;45559;-88
2022/07/25 10:52:27;;;;;;;;;0.75;0.75;;;;;29.00;40.44;101040.00;5086742;27;45414;-75
2022/07/25 10:54:57;;;;;;;;;1.67;1.67;;;;;28.76;40.75;101030.00;5091288;27;45548;-75
2022/07/25 10:57:23;;;;;;;;;2.00;2.00;;;;;28.75;40.62;101052.13;5092371;27;45534;-75
2022/07/25 10:59:49;;;;;;;;;1.00;1.00;;;;;28.70;40.73;101049.06;5090492;27;47140;-79
2022/07/25 11:02:15;;;;;;;;;2.00;2.00;;;;;28.66;40.82;101042.22;5089112;27;46582;-74
2022/07/25 11:04:56;;;;;;;;;1.00;1.00;;;;;28.94;40.19;101053.56;5093073;27;45468;-74
2022/07/25 11:07:22;;;;;;;;;1.67;1.00;;;;;29.13;39.73;101052.31;5100056;27;45484;-75
2022/07/25 11:09:56;;;;;;;;;1.67;1.00;;;;;29.29;39.47;101049.47;5095312;27;47185;-77
2022/07/25 11:12:22;;;;;;;;;0.33;0.33;;;;;29.22;39.48;101040.22;5094729;27;45761;-73
2022/07/25 11:14:47;;;;;;;;;1.33;1.33;;;;;29.39;39.42;101049.22;5092634;27;45792;-74
2022/07/25 11:17:19;;;;;;;;;0.00;0.00;;;;;29.44;39.64;101030.31;5095077;27;45607;-75
2022/07/25 11:19:58;;;;;;;;;2.00;1.00;;;;;29.41;38.90;101042.50;5095891;27;45877;-74
2022/07/25 11:22:28;;;;;;;;;3.00;1.00;;;;;29.49;39.08;101044.31;5091648;27;45559;-75
2022/07/25 11:24:53;;;;;;;;;1.00;1.00;;;;;29.50;39.30;101039.69;5097172;27;45445;-74
2022/07/25 11:27:30;;;;;;;;;1.00;1.00;;;;;29.55;38.05;101048.22;5089163;27;45993;-76